• Join FlightAware (Why Join?)
  • Login
  • US Flag 
09:09PM EDT


 

Airport Tracker/Info


-or-


 

Live Flight TrackerFlight Track Log ✈ BJS542 ✈ 26-Apr-2013 ✈ KDET - KBTV

Flight Track Log - Related Links

Times and Time Zones

All times are in EDT time to prevent confusion due to time zone crossing. See the BJS542 flight status page for this flight to view local times or setup timezone preferences in your user account.

Time Position Orientation Groundspeed Altitude Reporting Facility
EDT Latitude Longitude Course Direction KTS MPH feet Rate Location/Type
01:06PM 42.3994 -83.0014 147° Southeast 147 169 1,700  Level Cleveland Center
01:07PM 42.3625 -82.9689 147° Southeast 199 229 2,900 2,640 Climbing Cleveland Center
01:08PM 42.3025 -82.9500 167° South 237 273 6,900 4,020 Climbing Cleveland Center
01:08PM 42.2844 -82.9128 123° Southeast 262 302 8,700 4,320 Climbing Cleveland Center
01:09PM 42.2717 -82.8139 100° East 272 313 13,100 4,320 Climbing Cleveland Center
01:10PM 42.2992 -82.6858 74° East 301 346 17,400 3,960 Climbing Cleveland Center
01:11PM 42.2975 -82.5425 91° East 331 381 21,100 3,060 Climbing Cleveland Center
01:12PM 42.2939 -82.3881 92° East 370 426 23,600 2,220 Climbing Cleveland Center
01:13PM 42.2903 -82.2167 92° East 414 476 25,600 1,860 Climbing Cleveland Center
01:14PM 42.2861 -82.0511 92° East 469 540 27,400 1,920 Climbing Cleveland Center
01:15PM 42.2842 -81.8631 91° East 491 565 29,500 2,040 Climbing Cleveland Center
01:16PM 42.2800 -81.6719 92° East 508 585 31,500 1,980 Climbing Cleveland Center
01:17PM 42.2753 -81.4756 92° East 516 594 33,500 2,160 Climbing Cleveland Center
01:18PM 42.2686 -81.2622 92° East 516 594 35,900 2,340 Climbing Cleveland Center
01:19PM 42.2633 -81.0686 92° East 511 588 38,200 2,160 Climbing Cleveland Center
01:20PM 42.2597 -80.8778 91° East 511 588 40,300 1,860 Climbing Cleveland Center
01:21PM 42.2517 -80.6925 93° East 504 580 42,000 1,440 Climbing Cleveland Center
01:22PM 42.2456 -80.5103 93° East 495 570 43,200 960 Climbing Cleveland Center
01:23PM 42.2389 -80.3308 93° East 490 564 44,000 660 Climbing Cleveland Center
01:24PM 42.2322 -80.1486 93° East 484 557 44,600 480 Climbing Cleveland Center
01:25PM 42.2272 -79.9664 92° East 484 557 45,000 180 Climbing Cleveland Center
01:26PM 42.2197 -79.7728 93° East 484 557 45,000  Level Cleveland Center
01:27PM 42.2100 -79.5797 94° East 503 579 45,000  Level Cleveland Center
01:28PM 42.2039 -79.3892 92° East 509 586 45,000  Level Cleveland Center
01:29PM 42.1956 -79.2014 93° East 509 586 45,000  Level Cleveland Center
01:30PM 42.2267 -79.0186 77° East 495 570 45,000  Level Cleveland Center
01:31PM 42.2786 -78.8628 66° East 495 570 45,000  Level Cleveland Center
01:32PM 42.3406 -78.6983 63° Northeast 490 564 45,000  Level Cleveland Center
01:33PM 42.3981 -78.5278 65° Northeast 490 564 45,000  Level Cleveland Center
01:34PM 42.4556 -78.3572 65° Northeast 490 564 45,000  Level Cleveland Center
01:35PM 42.5125 -78.1861 66° East 490 564 45,000  Level Cleveland Center
01:36PM 42.5694 -78.0203 65° Northeast 485 558 45,000  Level Cleveland Center
01:37PM 42.6300 -77.8458 65° Northeast 490 564 45,000  Level Cleveland Center
01:38PM 42.6900 -77.6622 66° East 483 556 45,000  Level Cleveland Center
01:39PM 42.7481 -77.4900 65° Northeast 488 562 45,000  Level Cleveland Center
01:40PM 42.8039 -77.3203 66° East 494 568 45,000  Level Cleveland Center
01:41PM 42.8594 -77.1503 66° East 489 563 45,000  Level Cleveland Center
01:42PM 42.9125 -76.9800 67° East 489 563 45,000  Level Cleveland Center
01:44PM 43.0136 -76.6744 66° East 490 564 45,000  Level Boston Center
01:45PM 43.0678 -76.5047 66° East 490 564 45,000  Level Boston Center
01:46PM 43.1217 -76.3347 66° East 490 564 45,000  Level Boston Center
01:47PM 43.1856 -76.1708 62° Northeast 490 564 45,000  Level Boston Center
01:48PM 43.2714 -76.0250 51° Northeast 485 558 45,000 -480 Level Boston Center
01:49PM 43.3553 -75.8814 51° Northeast 485 558 44,100 -1,140 Descending Boston Center
01:50PM 43.4225 -75.7192 60° Northeast 485 558 42,800 -1,500 Descending Boston Center
01:51PM 43.4914 -75.5656 58° Northeast 475 547 40,900 -2,040 Descending Boston Center
01:52PM 43.5583 -75.4028 60° Northeast 475 547 38,400 -3,300 Descending Boston Center
01:53PM 43.6469 -75.1889 60° Northeast 480 552 34,400 -3,600 Descending Boston Center
01:54PM 43.7133 -75.0311 60° Northeast 480 552 31,300 -3,180 Descending Boston Center
01:55PM 43.7769 -74.8786 60° Northeast 462 532 28,100 -3,120 Descending Boston Center
01:56PM 43.8406 -74.7228 60° Northeast 457 526 25,100 -3,000 Descending Boston Center
01:57PM 43.9019 -74.5753 60° Northeast 451 519 22,100 -3,000 Descending Boston Center
01:58PM 43.9608 -74.4303 61° Northeast 446 513 19,200 -2,340 Descending Boston Center
01:59PM 44.0172 -74.2850 62° Northeast 430 495 17,500 -1,860 Descending Boston Center
02:00PM 44.0736 -74.1508 60° Northeast 415 478 15,500 -2,100 Descending Boston Center
02:01PM 44.1253 -74.0250 60° Northeast 387 445 13,400 -2,100 Descending Boston Center
02:02PM 44.1772 -73.8961 61° Northeast 375 432 11,400 -1,500 Descending Boston Center
02:03PM 44.2222 -73.7842 61° Northeast 353 406 10,500 -1,200 Descending Boston Center
02:04PM 44.2608 -73.6894 60° Northeast 302 348 9,000 -1,560 Descending Boston Center
02:05PM 44.2950 -73.6031 61° Northeast 284 327 7,400 -1,440 Descending Boston Center
02:06PM 44.3272 -73.5197 62° Northeast 279 321 6,200 -1,260 Descending Boston Center
02:07PM 44.3553 -73.4128 70° East 267 307 4,900 -1,320 Descending Boston Center
02:08PM 44.3767 -73.3231 72° East 250 288 3,600 -960 Descending Boston Center
02:09PM 44.4022 -73.2361 68° East 241 277 3,000 -720 Descending Boston Center
02:10PM 44.4217 -73.1639 69° East 214 246 2,200 -1,020 Descending Boston Center
02:11PM 44.4531 -73.1322 36° Northeast 164 189 1,000 7,860 Descending Boston Center
02:12PM 44.4717 -73.1528 322° Northwest 106 122 18,000 8,460 Climbing Boston Center
02:13PM 44.4986 -73.1619 346° North 90 104 18,000  Level Boston Center
02:14PM 44.5258 -73.1681 351° North 90 104 18,000  Level Boston Center
02:15PM 44.5506 -73.1769 346° North 90 104 18,000  Level Boston Center
02:16PM 44.5778 -73.1833 351° North 90 104 18,000  Level Boston Center